Time;durP1;ratioP1;P1;durP2;ratioP2;P2;SDS_P1;SDS_P2;PMS_P1;PMS_P2;Temp;Humidity;BMP_temperature;BMP_pressure;BME280_temperature;BME280_humidity;BME280_pressure;Samples;Min_cycle;Max_cycle;Signal;HPM_P1;HPM_P2
2022/01/20 00:01:34;;;;;;;;;;;;;;;;;;;;;
2022/01/20 00:26:54;;;;;;;23.95;4.28;;;4.70;99.90;;;;;;4972510;28;19913;-89
2022/01/20 00:29:28;;;;;;;22.30;4.93;;;4.80;99.90;;;;;;4941793;29;20063;-89
2022/01/20 00:32:16;;;;;;;22.52;4.20;;;4.80;99.90;;;;;;4942344;29;20046;-88
2022/01/20 00:37:29;;;;;;;24.15;4.88;;;4.80;99.90;;;;;;4949430;28;20107;-88
2022/01/20 00:40:14;;;;;;;16.67;3.72;;;4.80;99.90;;;;;;4967422;29;20051;-89
2022/01/20 00:42:45;;;;;;;15.35;3.38;;;4.80;99.90;;;;;;4978069;28;20030;-89
2022/01/20 00:45:37;;;;;;;19.95;3.55;;;4.90;99.90;;;;;;4965245;28;20022;-88
2022/01/20 00:48:50;;;;;;;;;;;;;;;;;;;;;
2022/01/20 00:51:42;;;;;;;;;;;;;;;;;;;;;
2022/01/20 00:54:19;;;;;;;19.33;3.97;;;4.90;99.90;;;;;;4952516;28;20390;-89
2022/01/20 00:57:08;;;;;;;22.50;4.95;;;4.90;99.90;;;;;;4972323;28;20029;-88
2022/01/20 00:59:45;;;;;;;18.13;4.15;;;5.00;99.90;;;;;;4940597;28;20043;-88
2022/01/20 01:02:21;;;;;;;17.02;4.00;;;5.00;99.90;;;;;;4976189;28;20081;-88
2022/01/20 01:10:53;;;;;;;14.82;3.22;;;5.00;99.90;;;;;;4917196;29;20518;-89
2022/01/20 01:13:39;;;;;;;14.70;3.50;;;5.00;99.90;;;;;;4946377;29;20479;-88
2022/01/20 01:16:23;;;;;;;;;;;;;;;;;;;;;
2022/01/20 01:25:05;;;;;;;;;;;;;;;;;;;;;
2022/01/20 01:27:44;;;;;;;;;;;;;;;;;;;;;
2022/01/20 01:30:28;;;;;;;17.58;3.40;;;5.00;99.90;;;;;;4976200;28;20031;-89
2022/01/20 01:33:28;;;;;;;10.98;2.58;;;5.00;99.90;;;;;;4959576;28;20106;-89
2022/01/20 01:35:56;;;;;;;17.93;3.03;;;5.10;99.90;;;;;;4942662;29;20043;-89
2022/01/20 01:38:41;;;;;;;10.57;2.80;;;5.10;99.90;;;;;;4962533;28;20042;-88
2022/01/20 01:41:27;;;;;;;14.90;3.00;;;5.10;99.90;;;;;;4953727;28;20094;-89
2022/01/20 01:43:57;;;;;;;12.77;2.67;;;5.10;99.90;;;;;;4943776;28;20039;-89
2022/01/20 01:46:49;;;;;;;;;;;;;;;;;;;;;
2022/01/20 01:49:26;;;;;;;11.27;2.58;;;5.10;99.90;;;;;;4962411;28;20045;-89
2022/01/20 01:51:54;;;;;;;12.35;3.03;;;5.20;99.90;;;;;;4959756;28;20026;-88
2022/01/20 01:55:06;;;;;;;;;;;;;;;;;;;;;
2022/01/20 01:57:56;;;;;;;15.57;3.28;;;5.20;99.90;;;;;;4965170;28;20033;-88
2022/01/20 02:00:30;;;;;;;13.07;2.35;;;5.20;99.90;;;;;;4976602;28;20045;-90
2022/01/20 02:03:04;;;;;;;17.40;3.15;;;5.20;99.90;;;;;;4944565;28;20035;-88
2022/01/20 02:06:30;;;;;;;11.13;2.50;;;5.20;99.90;;;;;;4928329;28;20467;-89
2022/01/20 02:18:09;;;;;;;;;;;;;;;;;;;;;
2022/01/20 02:21:17;;;;;;;;;;;;;;;;;;;;;
2022/01/20 02:24:00;;;;;;;13.30;2.10;;;5.30;99.90;;;;;;4944699;28;20027;-88
2022/01/20 02:27:05;;;;;;;;;;;;;;;;;;;;;
2022/01/20 02:29:46;;;;;;;;;;;;;;;;;;;;;
2022/01/20 02:32:17;;;;;;;10.82;2.65;;;5.40;99.90;;;;;;4936919;29;20377;-88
2022/01/20 02:35:07;;;;;;;10.70;2.95;;;5.40;99.90;;;;;;4939188;29;20043;-88
2022/01/20 02:38:10;;;;;;;;;;;;;;;;;;;;;
2022/01/20 02:46:33;;;;;;;11.70;2.40;;;5.30;99.90;;;;;;4955184;28;20089;-88
2022/01/20 02:49:13;;;;;;;15.60;2.65;;;5.30;99.90;;;;;;4917357;29;20038;-89
2022/01/20 02:51:45;;;;;;;12.70;2.75;;;5.30;99.90;;;;;;4968388;28;20043;-88
2022/01/20 02:54:13;;;;;;;13.65;3.10;;;5.30;99.90;;;;;;4946051;29;20032;-87
2022/01/20 02:56:44;;;;;;;10.82;2.60;;;5.30;99.90;;;;;;4956184;28;20024;-88
2022/01/20 02:59:40;;;;;;;13.43;2.35;;;5.30;99.90;;;;;;4939542;29;20027;-87
2022/01/20 03:02:11;;;;;;;11.70;2.35;;;5.40;99.90;;;;;;4956052;28;20503;-88
2022/01/20 03:05:02;;;;;;;13.43;2.83;;;5.30;99.90;;;;;;4942550;29;20110;-88
2022/01/20 03:07:55;;;;;;;12.53;2.43;;;5.40;99.90;;;;;;4954704;28;20038;-90
2022/01/20 03:11:00;;;;;;;;;;;;;;;;;;;;;
2022/01/20 03:14:13;;;;;;;8.98;2.47;;;5.40;99.90;;;;;;4973007;28;20027;-88
2022/01/20 03:17:00;;;;;;;;;;;;;;;;;;;;;
2022/01/20 03:19:53;;;;;;;10.35;2.10;;;5.30;99.90;;;;;;4959656;28;20499;-88
2022/01/20 03:22:28;;;;;;;11.68;2.45;;;5.30;99.90;;;;;;4969137;28;20074;-88
2022/01/20 03:25:20;;;;;;;10.80;2.20;;;5.40;99.90;;;;;;4927026;28;20042;-88
2022/01/20 03:27:50;;;;;;;15.13;3.15;;;5.40;99.90;;;;;;4957680;28;20027;-88
2022/01/20 03:30:48;;;;;;;10.97;3.00;;;5.40;99.90;;;;;;4958220;28;20479;-89
2022/01/20 03:33:35;;;;;;;;;;;;;;;;;;;;;
2022/01/20 03:36:26;;;;;;;15.35;2.70;;;5.40;99.90;;;;;;4976720;28;20030;-88
2022/01/20 03:39:16;;;;;;;12.50;2.50;;;5.40;99.90;;;;;;4960432;28;20023;-91
2022/01/20 03:41:44;;;;;;;12.18;2.50;;;5.30;99.90;;;;;;4997485;28;20023;-91
2022/01/20 03:44:30;;;;;;;11.57;2.40;;;5.40;99.90;;;;;;4979472;28;20011;-88
2022/01/20 03:47:14;;;;;;;;;;;;;;;;;;;;;
2022/01/20 03:53:29;;;;;;;;;;;;;;;;;;;;;
2022/01/20 03:56:16;;;;;;;;;;;;;;;;;;;;;
2022/01/20 03:59:13;;;;;;;11.38;1.98;;;5.40;99.90;;;;;;4963701;28;20037;-89
2022/01/20 04:02:29;;;;;;;;;;;;;;;;;;;;;
2022/01/20 04:05:15;;;;;;;11.50;2.40;;;5.40;99.90;;;;;;4955514;29;20036;-88
2022/01/20 04:08:01;;;;;;;;;;;;;;;;;;;;;
2022/01/20 04:10:50;;;;;;;;;;;;;;;;;;;;;
2022/01/20 04:13:32;;;;;;;12.05;2.08;;;5.40;99.90;;;;;;4944977;29;20029;-88
2022/01/20 04:16:50;;;;;;;7.75;1.80;;;5.40;99.90;;;;;;4958043;29;20130;-89
2022/01/20 04:19:55;;;;;;;;;;;;;;;;;;;;;
2022/01/20 04:23:17;;;;;;;;;;;;;;;;;;;;;
2022/01/20 04:28:53;;;;;;;;;;;;;;;;;;;;;
2022/01/20 04:31:36;;;;;;;14.57;3.22;;;5.50;99.90;;;;;;4958740;29;20045;-89
2022/01/20 04:34:31;;;;;;;9.38;2.08;;;5.50;99.90;;;;;;4927261;29;20036;-89
2022/01/20 04:37:10;;;;;;;15.95;3.55;;;5.50;99.90;;;;;;4943251;29;20055;-88
2022/01/20 04:40:03;;;;;;;;;;;;;;;;;;;;;
2022/01/20 04:42:41;;;;;;;;;;;;;;;;;;;;;
2022/01/20 04:45:46;;;;;;;13.85;2.75;;;5.50;99.90;;;;;;4962518;29;20110;-88
2022/01/20 04:48:31;;;;;;;14.10;3.10;;;5.50;99.90;;;;;;4942211;29;20039;-88
2022/01/20 04:58:02;;;;;;;10.57;2.70;;;5.50;99.90;;;;;;4947197;29;20035;-88
2022/01/20 05:01:12;;;;;;;;;;;;;;;;;;;;;
2022/01/20 05:04:00;;;;;;;;;;;;;;;;;;;;;
2022/01/20 05:06:54;;;;;;;19.73;4.03;;;5.40;99.90;;;;;;4980479;28;20074;-88
2022/01/20 05:09:56;;;;;;;;;;;;;;;;;;;;;
2022/01/20 05:15:25;;;;;;;;;;;;;;;;;;;;;
2022/01/20 05:18:24;;;;;;;;;;;;;;;;;;;;;
2022/01/20 05:21:10;;;;;;;;;;;;;;;;;;;;;
2022/01/20 05:23:44;;;;;;;13.02;2.20;;;5.40;99.90;;;;;;4970608;28;20118;-88
2022/01/20 05:26:33;;;;;;;;;;;;;;;;;;;;;
2022/01/20 05:29:29;;;;;;;10.65;1.88;;;5.40;99.90;;;;;;4947300;28;20106;-88
2022/01/20 05:32:10;;;;;;;;;;;;;;;;;;;;;
2022/01/20 05:34:48;;;;;;;;;;;;;;;;;;;;;
2022/01/20 05:37:27;;;;;;;18.75;3.92;;;5.40;99.90;;;;;;4955176;28;20027;-87
2022/01/20 05:39:58;;;;;;;14.98;2.78;;;5.40;99.90;;;;;;4959768;28;20058;-87
2022/01/20 05:42:27;;;;;;;12.35;2.15;;;5.40;99.90;;;;;;4973220;28;20106;-87
2022/01/20 05:45:13;;;;;;;15.73;3.95;;;5.40;99.90;;;;;;4945294;28;20047;-87
2022/01/20 05:48:09;;;;;;;14.52;2.35;;;5.40;99.90;;;;;;4946354;28;20079;-87
2022/01/20 05:50:46;;;;;;;13.27;2.72;;;5.40;99.90;;;;;;4942353;29;20111;-88
2022/01/20 05:53:22;;;;;;;17.75;2.70;;;5.40;99.90;;;;;;4930390;29;20027;-88
2022/01/20 05:56:00;;;;;;;12.23;2.25;;;5.40;99.90;;;;;;4946791;29;20058;-87
2022/01/20 05:58:29;;;;;;;14.65;2.70;;;5.40;99.90;;;;;;4948765;29;20095;-88
2022/01/20 06:01:16;;;;;;;11.13;3.10;;;5.50;99.90;;;;;;4960411;28;20075;-88
2022/01/20 06:04:06;;;;;;;14.98;3.03;;;5.40;99.90;;;;;;4936152;29;20084;-90
2022/01/20 06:06:44;;;;;;;8.73;2.25;;;5.40;99.90;;;;;;4946572;28;20106;-87
2022/01/20 06:09:25;;;;;;;16.42;2.83;;;5.40;99.90;;;;;;4953806;29;20168;-91
2022/01/20 06:12:30;;;;;;;12.50;3.00;;;5.40;99.90;;;;;;4949743;29;20095;-89
2022/01/20 06:15:53;;;;;;;;;;;;;;;;;;;;;
2022/01/20 06:18:56;;;;;;;18.40;3.83;;;5.40;98.90;;;;;;4979513;28;20122;-89
2022/01/20 06:21:41;;;;;;;17.08;3.58;;;5.30;98.40;;;;;;4978382;28;20038;-90
2022/01/20 06:24:43;;;;;;;16.42;3.20;;;5.30;98.20;;;;;;4962116;28;20041;-89
2022/01/20 06:27:36;;;;;;;;;;;;;;;;;;;;;
2022/01/20 06:30:38;;;;;;;;;;;;;;;;;;;;;
2022/01/20 06:33:36;;;;;;;;;;;5.30;97.80;;;;;;4973293;28;20066;-89
2022/01/20 06:36:48;;;;;;;14.23;3.17;;;5.30;97.70;;;;;;4995546;28;19932;-90
2022/01/20 06:39:19;;;;;;;12.82;2.92;;;5.30;97.40;;;;;;4961023;28;20039;-88
2022/01/20 06:42:16;;;;;;;15.93;2.97;;;5.30;97.40;;;;;;4964964;28;20030;-88
2022/01/20 06:45:26;;;;;;;12.38;2.38;;;5.30;97.00;;;;;;4978817;28;20134;-88
2022/01/20 06:48:09;;;;;;;;;;;;;;;;;;;;;
2022/01/20 06:50:40;;;;;;;13.50;2.60;;;5.30;96.30;;;;;;4984886;28;20091;-90
2022/01/20 06:53:32;;;;;;;10.43;2.72;;;5.30;96.00;;;;;;4965897;28;20419;-88
2022/01/20 06:59:43;;;;;;;;;;;;;;;;;;;;;
2022/01/20 07:02:50;;;;;;;;;;;;;;;;;;;;;
2022/01/20 07:05:45;;;;;;;11.52;2.20;;;5.20;95.50;;;;;;4965555;28;20059;-90
2022/01/20 07:08:12;;;;;;;9.30;2.20;;;5.20;95.20;;;;;;4993819;28;20065;-87
2022/01/20 07:13:39;;;;;;;14.02;2.00;;;5.10;94.40;;;;;;4967246;28;20039;-86
2022/01/20 07:16:15;;;;;;;;;;;;;;;;;;;;;
2022/01/20 07:18:50;;;;;;;8.73;2.25;;;4.90;93.80;;;;;;4982482;28;20162;-87
2022/01/20 07:21:42;;;;;;;;;;;;;;;;;;;;;
2022/01/20 07:24:28;;;;;;;;;;;;;;;;;;;;;
2022/01/20 07:27:33;;;;;;;;;;;;;;;;;;;;;
2022/01/20 07:30:09;;;;;;;9.43;1.83;;;4.80;94.30;;;;;;4967387;28;20463;-88
2022/01/20 07:33:03;;;;;;;8.75;1.88;;;4.80;94.30;;;;;;4968506;28;20035;-87
2022/01/20 07:36:04;;;;;;;7.47;2.47;;;4.80;94.10;;;;;;4971488;28;20031;-87
2022/01/20 07:39:04;;;;;;;10.93;1.70;;;4.80;93.90;;;;;;4968759;28;20026;-88
2022/01/20 07:41:31;;;;;;;7.70;1.65;;;4.70;94.10;;;;;;4986529;28;20095;-88
2022/01/20 07:44:06;;;;;;;6.70;2.08;;;4.70;94.20;;;;;;4969767;28;20043;-88
2022/01/20 07:46:32;;;;;;;7.10;1.83;;;4.70;94.40;;;;;;4970215;28;20030;-87
2022/01/20 07:49:07;;;;;;;10.15;1.90;;;4.70;94.60;;;;;;4981614;28;20046;-88
2022/01/20 07:51:36;;;;;;;7.55;1.52;;;4.70;94.70;;;;;;4954206;28;20043;-88
2022/01/20 07:54:02;;;;;;;8.10;1.80;;;4.70;94.80;;;;;;4987891;28;20485;-87
2022/01/20 07:56:35;;;;;;;7.07;1.67;;;4.70;95.00;;;;;;4991712;28;20027;-86
2022/01/20 07:59:27;;;;;;;7.93;1.77;;;4.70;95.10;;;;;;4982435;28;20031;-88
2022/01/20 08:02:20;;;;;;;8.73;2.80;;;4.70;95.20;;;;;;4971560;28;20030;-87
2022/01/20 08:04:56;;;;;;;;;;;;;;;;;;;;;
2022/01/20 08:07:30;;;;;;;12.35;2.42;;;4.70;95.40;;;;;;4989955;28;20054;-88
2022/01/20 08:10:21;;;;;;;;;;;;;;;;;;;;;
2022/01/20 08:13:08;;;;;;;;;;;;;;;;;;;;;
2022/01/20 08:16:22;;;;;;;;;;;;;;;;;;;;;
2022/01/20 08:22:27;;;;;;;;;;;;;;;;;;;;;
2022/01/20 08:28:35;;;;;;;8.48;2.20;;;4.70;95.70;;;;;;4935951;29;20064;-91
2022/01/20 08:31:05;;;;;;;9.52;1.63;;;4.80;95.90;;;;;;4959757;29;20039;-88
2022/01/20 08:33:51;;;;;;;9.13;1.77;;;4.80;96.00;;;;;;4933078;29;20038;-89
2022/01/20 08:36:52;;;;;;;7.50;2.22;;;4.80;96.00;;;;;;4950306;29;20038;-88
2022/01/20 08:42:13;;;;;;;11.48;2.35;;;4.80;96.20;;;;;;4963822;29;20372;-87
2022/01/20 08:44:55;;;;;;;7.13;2.67;;;4.80;96.20;;;;;;4946776;29;20023;-88
2022/01/20 08:53:47;;;;;;;;;;;;;;;;;;;;;
2022/01/20 08:56:54;;;;;;;;;;;;;;;;;;;;;
2022/01/20 08:59:48;;;;;;;9.52;1.90;;;4.90;95.60;;;;;;4949943;29;20117;-88
2022/01/20 09:02:39;;;;;;;8.93;1.83;;;4.90;95.70;;;;;;4934820;29;20050;-87
2022/01/20 09:05:13;;;;;;;4.32;1.60;;;5.00;95.90;;;;;;4935875;29;20038;-88
2022/01/20 09:11:48;;;;;;;;;;;;;;;;;;;;;
2022/01/20 09:17:19;;;;;;;9.55;2.13;;;5.10;95.90;;;;;;4967910;29;20059;-87
2022/01/20 09:20:21;;;;;;;9.23;2.25;;;5.10;95.80;;;;;;4979124;28;20051;-87
2022/01/20 09:22:51;;;;;;;11.25;2.88;;;5.10;95.50;;;;;;4969541;28;20460;-87
2022/01/20 09:25:22;;;;;;;7.30;1.88;;;4.90;95.40;;;;;;4971045;28;20030;-88
2022/01/20 09:27:50;;;;;;;;;;;4.80;95.80;;;;;;4980421;28;20039;-88
2022/01/20 09:30:22;;;;;;;6.82;2.30;;;4.80;96.40;;;;;;4983522;28;19902;-87
2022/01/20 09:36:15;;;;;;;9.35;2.50;;;4.70;96.60;;;;;;4997653;28;20102;-87
2022/01/20 09:39:01;;;;;;;11.05;2.38;;;4.70;96.90;;;;;;4972295;28;20018;-86
2022/01/20 09:41:30;;;;;;;7.88;2.00;;;4.60;97.20;;;;;;4965336;28;20038;-86
2022/01/20 09:43:58;;;;;;;10.75;2.30;;;4.60;97.40;;;;;;4966852;28;20033;-87
2022/01/20 09:46:34;;;;;;;12.57;2.30;;;4.70;97.60;;;;;;4913962;29;20060;-87
2022/01/20 09:49:36;;;;;;;13.95;2.10;;;4.60;97.70;;;;;;4944507;29;20031;-87
2022/01/20 09:52:14;;;;;;;9.63;1.80;;;4.70;97.80;;;;;;4944305;29;20047;-87
2022/01/20 09:54:42;;;;;;;13.63;2.78;;;4.60;97.80;;;;;;4944365;29;20035;-88
2022/01/20 09:57:16;;;;;;;9.45;2.05;;;4.60;97.70;;;;;;4936827;29;20031;-89
2022/01/20 10:00:25;;;;;;;6.63;1.83;;;4.60;97.80;;;;;;4959944;28;20026;-87
2022/01/20 10:03:35;;;;;;;;;;;;;;;;;;;;;
2022/01/20 10:06:07;;;;;;;10.50;2.20;;;4.70;98.00;;;;;;4980365;28;20117;-87
2022/01/20 10:08:43;;;;;;;13.95;2.65;;;4.80;98.00;;;;;;4948377;28;20035;-88
2022/01/20 10:11:15;;;;;;;6.70;1.90;;;4.80;98.00;;;;;;4962275;28;20066;-89
2022/01/20 10:13:42;;;;;;;;;;;4.90;98.10;;;;;;4969918;28;20093;-87
2022/01/20 10:16:35;;;;;;;10.95;2.58;;;4.90;98.10;;;;;;4963614;28;19913;-87
2022/01/20 10:19:24;;;;;;;9.80;1.90;;;5.00;98.20;;;;;;4978659;28;20051;-87
2022/01/20 10:22:21;;;;;;;;;;;;;;;;;;;;;
2022/01/20 10:25:20;;;;;;;;;;;;;;;;;;;;;
2022/01/20 10:28:15;;;;;;;12.68;2.42;;;5.10;98.00;;;;;;4980375;28;20563;-87
2022/01/20 10:31:06;;;;;;;26.58;3.75;;;5.10;97.90;;;;;;4979502;28;20031;-88
2022/01/20 10:33:47;;;;;;;14.48;2.85;;;5.10;97.50;;;;;;4961869;28;20486;-87
2022/01/20 10:36:46;;;;;;;18.45;3.20;;;5.20;97.50;;;;;;4960622;28;20424;-88
2022/01/20 10:39:35;;;;;;;13.60;3.15;;;5.20;97.60;;;;;;4941107;28;20039;-88
2022/01/20 10:42:45;;;;;;;;;;;;;;;;;;;;;
2022/01/20 10:45:39;;;;;;;9.80;3.15;;;5.30;97.60;;;;;;4979143;28;20536;-87
2022/01/20 10:48:21;;;;;;;14.98;2.75;;;5.30;97.50;;;;;;4952684;29;20105;-88
2022/01/20 10:50:56;;;;;;;16.35;3.75;;;5.40;97.50;;;;;;4944216;29;20122;-87
2022/01/20 10:53:27;;;;;;;13.57;2.72;;;5.40;97.30;;;;;;4960266;29;20035;-87
2022/01/20 10:56:05;;;;;;;15.38;3.00;;;5.40;97.30;;;;;;4962691;29;20051;-88
2022/01/20 11:02:24;;;;;;;12.27;2.58;;;5.40;97.40;;;;;;4942579;29;20046;-87
2022/01/20 11:04:56;;;;;;;16.92;3.40;;;5.40;97.40;;;;;;4940474;29;20020;-88
2022/01/20 11:07:28;;;;;;;12.43;2.95;;;5.40;97.20;;;;;;4940238;29;20095;-86
2022/01/20 11:10:15;;;;;;;13.93;2.97;;;5.40;97.10;;;;;;4940093;29;20118;-87
2022/01/20 11:12:45;;;;;;;11.65;2.28;;;5.40;96.80;;;;;;4944772;28;20042;-88
2022/01/20 11:15:15;;;;;;;10.82;2.72;;;5.50;96.70;;;;;;4958817;28;20476;-87
2022/01/20 11:17:57;;;;;;;12.02;2.35;;;5.50;96.50;;;;;;4960502;28;20026;-87
2022/01/20 11:20:27;;;;;;;8.57;2.25;;;5.60;96.20;;;;;;4959073;28;20055;-88
2022/01/20 11:26:03;;;;;;;9.20;2.42;;;5.70;95.90;;;;;;4955837;29;20122;-88
2022/01/20 11:28:39;;;;;;;13.25;2.70;;;5.70;94.70;;;;;;4958859;29;20027;-87
2022/01/20 11:31:13;;;;;;;15.25;3.05;;;5.70;94.80;;;;;;4962171;29;20091;-88
2022/01/20 11:37:46;;;;;;;;;;;;;;;;;;;;;
2022/01/20 11:40:29;;;;;;;8.90;2.17;;;5.70;93.70;;;;;;4960341;29;20403;-88
2022/01/20 11:43:24;;;;;;;9.98;2.42;;;5.70;93.20;;;;;;4941726;29;20035;-88
2022/01/20 11:46:44;;;;;;;9.93;1.95;;;5.70;92.90;;;;;;4959026;29;20031;-89
2022/01/20 11:49:46;;;;;;;12.75;2.38;;;5.70;93.30;;;;;;4955463;29;20087;-90
2022/01/20 11:53:04;;;;;;;10.05;2.20;;;5.70;92.80;;;;;;4961315;29;20052;-91
2022/01/20 11:59:03;;;;;;;9.02;2.17;;;5.70;92.40;;;;;;4916723;29;20043;-91
2022/01/20 12:02:20;;;;;;;;;;;;;;;;;;;;;
2022/01/20 12:09:11;;;;;;;5.68;1.52;;;5.60;91.90;;;;;;4924665;29;20035;-90
2022/01/20 12:12:17;;;;;;;;;;;;;;;;;;;;;
2022/01/20 12:15:14;;;;;;;6.13;1.23;;;5.00;94.60;;;;;;4960792;29;20023;-88
2022/01/20 12:21:14;;;;;;;;;;;;;;;;;;;;;
2022/01/20 12:24:08;;;;;;;4.88;1.67;;;4.50;96.70;;;;;;5001157;28;20045;-89
2022/01/20 12:26:45;;;;;;;6.70;1.20;;;4.60;96.90;;;;;;4984445;28;20023;-87
2022/01/20 12:29:55;;;;;;;;;;;;;;;;;;;;;
2022/01/20 12:33:15;;;;;;;4.88;1.00;;;4.70;97.40;;;;;;4981343;28;20090;-89
2022/01/20 12:39:20;;;;;;;4.47;1.35;;;4.90;97.20;;;;;;4962783;28;20070;-88
2022/01/20 12:42:24;;;;;;;7.47;1.58;;;5.00;97.00;;;;;;4978074;28;20479;-88
2022/01/20 12:48:18;;;;;;;10.65;2.50;;;5.30;96.60;;;;;;4978720;28;20471;-89
2022/01/20 12:51:24;;;;;;;;;;;;;;;;;;;;;
2022/01/20 12:54:28;;;;;;;;;;;;;;;;;;;;;
2022/01/20 12:57:03;;;;;;;9.88;2.00;;;5.40;94.60;;;;;;4976457;28;20118;-89
2022/01/20 12:59:49;;;;;;;;;;;;;;;;;;;;;
2022/01/20 13:02:35;;;;;;;9.85;2.13;;;5.60;94.00;;;;;;4977946;28;20019;-89
2022/01/20 13:05:23;;;;;;;;;;;;;;;;;;;;;
2022/01/20 13:08:14;;;;;;;12.68;2.33;;;5.70;92.70;;;;;;4958242;29;20027;-89
2022/01/20 13:10:56;;;;;;;;;;;;;;;;;;;;;
2022/01/20 13:14:00;;;;;;;10.27;2.20;;;5.60;92.10;;;;;;4958401;29;20041;-89
2022/01/20 13:16:43;;;;;;;14.10;2.50;;;5.60;92.20;;;;;;4959858;28;20038;-90
2022/01/20 13:22:37;;;;;;;8.82;2.45;;;5.60;91.40;;;;;;4973602;28;20498;-88
2022/01/20 13:25:11;;;;;;;10.50;2.45;;;5.60;91.50;;;;;;4977882;28;20027;-90
2022/01/20 13:28:20;;;;;;;8.45;2.00;;;5.60;92.00;;;;;;4960180;28;20034;-89
2022/01/20 13:31:25;;;;;;;12.50;2.72;;;5.60;92.50;;;;;;4975871;28;20035;-88
2022/01/20 13:34:07;;;;;;;;;;;;;;;;;;;;;
2022/01/20 13:37:05;;;;;;;9.65;2.55;;;5.70;92.40;;;;;;4977441;28;20033;-89
2022/01/20 13:40:06;;;;;;;;;;;;;;;;;;;;;
2022/01/20 13:45:00;;;;;;;10.18;2.03;;;5.90;92.40;;;;;;4957596;29;20043;-89
2022/01/20 13:45:56;;;;;;;;;;;;;;;;;;;;;
2022/01/20 13:48:32;;;;;;;12.23;2.67;;;5.90;92.10;;;;;;4974626;29;20065;-89
2022/01/20 13:51:07;;;;;;;11.30;2.13;;;5.90;91.50;;;;;;4957097;29;20027;-89
2022/01/20 13:54:01;;;;;;;13.45;2.67;;;5.80;91.20;;;;;;4972878;28;20023;-88
2022/01/20 13:56:35;;;;;;;14.80;2.13;;;5.80;90.40;;;;;;4953916;28;20126;-89
2022/01/20 13:59:56;;;;;;;12.73;2.42;;;5.70;90.60;;;;;;4976594;28;20086;-89
2022/01/20 14:02:30;;;;;;;12.02;2.15;;;5.70;90.50;;;;;;4961863;28;20050;-88
2022/01/20 14:05:32;;;;;;;12.55;2.47;;;5.60;90.50;;;;;;4959006;28;20431;-88
2022/01/20 14:11:00;;;;;;;10.60;2.70;;;5.60;90.80;;;;;;4976651;28;20107;-89
2022/01/20 14:13:31;;;;;;;10.50;2.67;;;5.50;90.70;;;;;;4959916;28;20383;-89
2022/01/20 14:19:06;;;;;;;9.10;2.25;;;5.50;91.00;;;;;;4954581;28;20031;-89
2022/01/20 14:24:51;;;;;;;11.20;2.28;;;5.50;92.20;;;;;;4976320;28;20038;-90
2022/01/20 14:27:55;;;;;;;;;;;;;;;;;;;;;
2022/01/20 14:30:45;;;;;;;10.60;2.00;;;5.20;94.00;;;;;;4957190;28;20057;-89
2022/01/20 14:33:43;;;;;;;8.30;2.47;;;5.20;94.30;;;;;;4959241;28;20019;-89
2022/01/20 14:36:19;;;;;;;9.10;2.00;;;5.20;94.70;;;;;;4975101;28;20039;-89
2022/01/20 14:39:08;;;;;;;9.55;2.20;;;5.20;95.00;;;;;;4958828;28;20027;-88
2022/01/20 14:42:09;;;;;;;;;;;;;;;;;;;;;
2022/01/20 14:44:50;;;;;;;;;;;;;;;;;;;;;
2022/01/20 14:47:24;;;;;;;8.63;2.67;;;5.30;95.90;;;;;;4960765;28;20031;-88
2022/01/20 14:50:27;;;;;;;12.55;2.28;;;5.30;96.10;;;;;;4943293;28;20550;-89
2022/01/20 14:52:50;;;;;;;10.43;2.35;;;5.30;96.40;;;;;;4974313;28;20034;-89
2022/01/20 14:55:25;;;;;;;11.95;2.72;;;5.40;96.50;;;;;;4958247;28;20486;-89
2022/01/20 14:58:13;;;;;;;10.18;2.28;;;5.30;96.70;;;;;;4974571;28;20031;-89
2022/01/20 15:00:52;;;;;;;9.98;2.20;;;5.40;96.80;;;;;;4974987;28;20147;-89
2022/01/20 15:03:34;;;;;;;10.55;2.20;;;5.40;96.90;;;;;;4958370;28;20033;-89
2022/01/20 15:06:14;;;;;;;8.75;2.20;;;5.40;97.00;;;;;;4945517;28;20121;-89
2022/01/20 15:08:45;;;;;;;11.68;2.20;;;5.50;97.10;;;;;;4945054;28;20450;-90
2022/01/20 15:11:46;;;;;;;8.07;2.53;;;5.50;97.10;;;;;;4929424;28;20035;-89
2022/01/20 15:14:22;;;;;;;;;;;5.50;97.10;;;;;;4981582;28;20045;-90
2022/01/20 15:17:33;;;;;;;14.88;3.67;;;5.50;97.10;;;;;;4998368;28;19925;-89
2022/01/20 15:20:15;;;;;;;;;;;;;;;;;;;;;
2022/01/20 15:23:07;;;;;;;;;;;;;;;;;;;;;
2022/01/20 15:25:37;;;;;;;;;;;5.40;96.90;;;;;;4961416;28;20507;-88
2022/01/20 15:28:31;;;;;;;13.13;2.28;;;5.30;96.90;;;;;;4958458;28;19949;-89
2022/01/20 15:31:13;;;;;;;;;;;;;;;;;;;;;
2022/01/20 15:33:49;;;;;;;12.18;2.30;;;5.10;97.00;;;;;;4974758;28;20027;-88
2022/01/20 15:36:45;;;;;;;11.23;2.70;;;5.10;97.10;;;;;;4957995;28;20467;-89
2022/01/20 15:39:21;;;;;;;11.02;2.80;;;5.10;97.20;;;;;;4974389;28;20085;-89
2022/01/20 15:41:57;;;;;;;14.05;2.70;;;5.10;97.30;;;;;;4957663;28;20054;-88
2022/01/20 15:44:40;;;;;;;9.77;2.33;;;5.10;97.30;;;;;;4974304;28;20038;-89
2022/01/20 15:47:25;;;;;;;;;;;;;;;;;;;;;
2022/01/20 15:50:23;;;;;;;10.90;2.25;;;5.00;97.40;;;;;;4974905;28;20023;-89
2022/01/20 15:53:04;;;;;;;12.48;2.85;;;5.00;97.50;;;;;;4974982;28;20086;-89
2022/01/20 15:55:39;;;;;;;;;;;5.00;97.50;;;;;;4958478;28;20035;-89
2022/01/20 15:58:15;;;;;;;8.50;2.42;;;5.00;97.50;;;;;;4973561;28;20322;-88
2022/01/20 16:00:57;;;;;;;;;;;;;;;;;;;;;
2022/01/20 16:03:23;;;;;;;17.15;3.03;;;4.90;97.40;;;;;;4976233;28;20023;-90
2022/01/20 16:05:55;;;;;;;13.68;2.58;;;4.90;97.20;;;;;;4961614;28;20139;-89
2022/01/20 16:08:39;;;;;;;10.25;2.42;;;4.90;97.10;;;;;;4960682;28;20035;-89
2022/01/20 16:11:36;;;;;;;13.32;2.63;;;4.80;97.20;;;;;;4961342;28;20038;-87
2022/01/20 16:14:20;;;;;;;8.95;2.20;;;4.80;97.30;;;;;;4961473;28;20077;-89
2022/01/20 16:16:56;;;;;;;;;;;;;;;;;;;;;
2022/01/20 16:19:46;;;;;;;7.38;2.05;;;4.70;97.40;;;;;;4978615;28;20050;-88
2022/01/20 16:22:19;;;;;;;15.52;2.72;;;4.70;97.50;;;;;;4947827;28;20039;-88
2022/01/20 16:25:03;;;;;;;;;;;;;;;;;;;;;
2022/01/20 16:27:42;;;;;;;;;;;;;;;;;;;;;
2022/01/20 16:30:09;;;;;;;9.65;2.30;;;4.60;97.50;;;;;;4969328;28;20038;-87
2022/01/20 16:32:45;;;;;;;9.57;2.75;;;4.50;97.50;;;;;;4970270;28;20054;-87
2022/01/20 16:35:13;;;;;;;12.25;2.80;;;4.50;97.50;;;;;;4960775;28;20037;-88
2022/01/20 16:37:45;;;;;;;8.25;2.28;;;4.50;97.50;;;;;;4963082;28;20054;-88
2022/01/20 16:40:14;;;;;;;10.20;2.83;;;4.50;97.60;;;;;;4983918;28;20035;-89
2022/01/20 16:42:56;;;;;;;9.63;2.15;;;4.50;97.60;;;;;;4980803;28;20057;-88
2022/01/20 16:45:45;;;;;;;13.38;2.53;;;4.50;97.70;;;;;;4973046;28;20033;-87
2022/01/20 16:48:14;;;;;;;6.90;2.40;;;4.50;97.80;;;;;;4949192;29;20110;-88
2022/01/20 16:50:42;;;;;;;6.82;2.40;;;4.50;97.80;;;;;;4954676;28;20042;-87
2022/01/20 16:53:24;;;;;;;;;;;;;;;;;;;;;
2022/01/20 16:56:06;;;;;;;12.00;2.67;;;4.40;97.80;;;;;;4960717;28;20037;-89
2022/01/20 16:59:05;;;;;;;;;;;;;;;;;;;;;
2022/01/20 17:01:34;;;;;;;10.32;2.80;;;4.40;97.70;;;;;;4966702;28;20035;-88
2022/01/20 17:04:16;;;;;;;11.00;2.08;;;4.40;97.70;;;;;;4968999;28;20023;-87
2022/01/20 17:06:59;;;;;;;13.00;2.50;;;4.40;97.70;;;;;;4961258;28;20055;-88
2022/01/20 17:09:42;;;;;;;;;;;;;;;;;;;;;
2022/01/20 17:12:22;;;;;;;9.02;1.80;;;4.40;97.70;;;;;;4976907;28;20039;-88
2022/01/20 17:15:06;;;;;;;;;;;;;;;;;;;;;
2022/01/20 17:17:46;;;;;;;10.82;2.47;;;4.30;97.60;;;;;;4950708;28;20617;-88
2022/01/20 17:20:31;;;;;;;11.52;2.38;;;4.30;97.70;;;;;;4943999;28;20065;-88
2022/01/20 17:23:30;;;;;;;;;;;;;;;;;;;;;
2022/01/20 17:26:35;;;;;;;;;;;;;;;;;;;;;
2022/01/20 17:29:40;;;;;;;5.65;1.98;;;4.30;97.60;;;;;;4944894;28;20050;-89
2022/01/20 17:32:15;;;;;;;11.57;2.53;;;4.30;97.60;;;;;;4960425;28;20402;-88
2022/01/20 17:34:54;;;;;;;12.75;2.17;;;4.30;97.50;;;;;;4955206;28;20121;-87
2022/01/20 17:37:59;;;;;;;9.70;2.50;;;4.30;97.50;;;;;;4944350;28;20121;-88
2022/01/20 17:40:32;;;;;;;9.20;2.20;;;4.30;97.50;;;;;;4989384;28;20041;-89
2022/01/20 17:43:28;;;;;;;7.68;2.45;;;4.30;97.40;;;;;;4944477;28;20062;-89
2022/01/20 17:46:48;;;;;;;11.55;2.50;;;4.20;97.20;;;;;;4966409;28;20037;-90
2022/01/20 17:49:44;;;;;;;9.60;1.58;;;4.20;97.10;;;;;;4959246;28;20031;-88
2022/01/20 17:53:17;;;;;;;;;;;;;;;;;;;;;
2022/01/20 17:56:06;;;;;;;8.18;1.77;;;4.10;97.00;;;;;;4960818;28;20043;-89
2022/01/20 17:58:44;;;;;;;;;;;;;;;;;;;;;
2022/01/20 18:01:30;;;;;;;4.10;1.40;;;4.10;97.10;;;;;;4977542;28;20453;-88
2022/01/20 18:04:24;;;;;;;5.43;1.88;;;4.00;97.10;;;;;;4974510;28;20067;-90
2022/01/20 18:07:13;;;;;;;6.35;1.90;;;4.10;97.20;;;;;;4978724;28;20055;-88
2022/01/20 18:09:54;;;;;;;;;;;;;;;;;;;;;
2022/01/20 18:12:39;;;;;;;;;;;;;;;;;;;;;
2022/01/20 18:15:20;;;;;;;;;;;;;;;;;;;;;
2022/01/20 18:18:01;;;;;;;;;;;;;;;;;;;;;
2022/01/20 18:20:36;;;;;;;8.05;1.92;;;4.00;97.60;;;;;;4976761;28;20047;-91
2022/01/20 18:23:32;;;;;;;9.95;2.65;;;4.00;97.70;;;;;;4943868;28;20061;-91
2022/01/20 18:26:44;;;;;;;8.80;2.38;;;4.00;97.90;;;;;;4950804;28;20067;-91
2022/01/20 18:29:28;;;;;;;;;;;;;;;;;;;;;
2022/01/20 18:32:31;;;;;;;9.88;2.58;;;4.10;97.90;;;;;;4976680;28;20483;-92
2022/01/20 18:35:00;;;;;;;8.90;2.47;;;4.10;97.90;;;;;;4946220;28;20094;-91
2022/01/20 18:37:59;;;;;;;8.55;2.00;;;4.00;98.00;;;;;;4959380;28;20467;-91
2022/01/20 18:41:11;;;;;;;;;;;;;;;;;;;;;
2022/01/20 18:46:46;;;;;;;9.73;2.50;;;3.90;98.50;;;;;;4969026;28;20048;-90
2022/01/20 18:53:08;;;;;;;13.88;2.47;;;3.90;98.40;;;;;;4941382;29;20130;-91
2022/01/20 18:56:21;;;;;;;;;;;;;;;;;;;;;
2022/01/20 18:59:32;;;;;;;;;;;;;;;;;;;;;
2022/01/20 19:02:21;;;;;;;10.98;2.95;;;3.80;98.60;;;;;;4959460;28;20041;-89
2022/01/20 19:05:16;;;;;;;;;;;;;;;;;;;;;